createdAt,value
2019-02-21T00:02:21.623Z,101237.98
2019-02-21T00:04:51.364Z,101233.02
2019-02-21T00:07:21.364Z,101244.73
2019-02-21T00:09:51.131Z,101238.78
2019-02-21T00:12:21.092Z,101247.50
2019-02-21T00:14:50.609Z,101246.52
2019-02-21T00:17:19.719Z,101246.69
2019-02-21T00:19:48.564Z,101244.72
2019-02-21T00:22:18.132Z,101252.59
2019-02-21T00:24:48.012Z,101250.11
2019-02-21T00:27:17.877Z,101260.47
2019-02-21T00:29:47.492Z,101254.71
2019-02-21T00:32:17.041Z,101260.47
2019-02-21T00:34:46.223Z,101258.66
2019-02-21T00:37:16.007Z,101255.02
2019-02-21T00:39:45.870Z,101255.02
2019-02-21T00:42:15.814Z,101257.83
2019-02-21T00:44:45.347Z,101258.96
2019-02-21T00:47:14.203Z,101244.44
2019-02-21T00:49:42.972Z,101253.48
2019-02-21T00:52:13.131Z,101255.47
2019-02-21T00:54:41.978Z,101258.44
2019-02-21T00:57:11.926Z,101253.19
2019-02-21T00:59:41.077Z,101256.01
2019-02-21T01:02:09.947Z,101246.27
2019-02-21T01:04:39.805Z,101251.36
2019-02-21T01:07:09.818Z,101249.23
2019-02-21T01:09:39.489Z,101246.42
2019-02-21T01:12:09.043Z,101250.05
2019-02-21T01:14:38.958Z,101249.07
2019-02-21T01:17:08.919Z,101248.09
2019-02-21T01:19:38.168Z,101247.91
2019-02-21T01:22:08.104Z,101245.29
2019-02-21T01:24:38.029Z,101246.95
2019-02-21T01:27:07.916Z,101246.31
2019-02-21T01:29:38.040Z,101253.87
2019-02-21T01:32:08.165Z,101253.07
2019-02-21T01:34:38.012Z,101250.11
2019-02-21T01:37:07.915Z,101250.96
2019-02-21T01:39:37.523Z,101251.59
2019-02-21T01:42:07.274Z,101246.98
2019-02-21T01:44:37.047Z,101251.91
2019-02-21T01:47:06.935Z,101250.08
2019-02-21T01:49:36.803Z,101251.73
2019-02-21T01:52:06.706Z,101249.80
2019-02-21T01:54:35.889Z,101250.61
2019-02-21T01:57:05.310Z,101250.57
2019-02-21T01:59:34.102Z,101251.41
2019-02-21T02:02:02.872Z,101247.17
2019-02-21T02:04:31.631Z,101249.81
2019-02-21T02:07:01.126Z,101249.15
2019-02-21T02:09:30.840Z,101255.09
2019-02-21T02:12:00.149Z,101243.22
2019-02-21T02:14:30.270Z,101247.01
2019-02-21T02:17:00.442Z,101246.73
2019-02-21T02:19:30.231Z,101242.91
2019-02-21T02:21:59.850Z,101240.34
2019-02-21T02:24:29.799Z,101241.09
2019-02-21T02:26:59.673Z,101242.16
2019-02-21T02:29:29.344Z,101239.97
2019-02-21T02:31:58.417Z,101246.49
2019-02-21T02:34:27.268Z,101249.47
2019-02-21T02:36:56.052Z,101244.03
2019-02-21T02:39:26.120Z,101240.20
2019-02-21T02:41:56.173Z,101247.86
2019-02-21T02:44:26.881Z,101247.44
2019-02-21T02:46:56.428Z,101256.98
2019-02-21T02:49:26.812Z,101249.74
2019-02-21T02:51:57.257Z,101255.98
2019-02-21T02:54:27.363Z,101264.12
2019-02-21T02:56:57.304Z,101264.06
2019-02-21T02:59:40.030Z,101266.53
2019-02-21T03:01:59.174Z,101269.45
2019-02-21T03:04:29.314Z,101282.51
2019-02-21T03:06:59.642Z,101280.72
2019-02-21T03:09:29.499Z,101281.70
2019-02-21T03:11:58.747Z,101289.17
2019-02-21T03:14:28.653Z,101287.66
2019-02-21T03:16:58.655Z,101285.43
2019-02-21T03:19:28.588Z,101286.59
2019-02-21T03:21:57.367Z,101278.59
2019-02-21T03:24:27.257Z,101277.54
2019-02-21T03:26:57.385Z,101278.36
2019-02-21T03:29:27.009Z,101281.75
2019-02-21T03:31:57.200Z,101273.57
2019-02-21T03:34:26.100Z,101277.30
2019-02-21T03:36:55.719Z,101275.67
2019-02-21T03:39:27.992Z,101277.15
2019-02-21T03:41:59.849Z,101275.28
2019-02-21T03:44:29.640Z,101273.47
2019-02-21T03:46:59.097Z,101272.52
2019-02-21T03:49:28.036Z,101278.86
2019-02-21T03:51:57.657Z,101276.15
2019-02-21T03:54:26.934Z,101277.29
2019-02-21T03:56:56.885Z,101274.68
2019-02-21T03:59:27.447Z,101274.50
2019-02-21T04:02:04.926Z,101266.53
2019-02-21T04:04:28.384Z,101272.20
2019-02-21T04:06:58.648Z,101270.25
2019-02-21T04:09:28.267Z,101261.58
2019-02-21T04:11:58.682Z,101265.55
2019-02-21T04:14:29.357Z,101263.97
2019-02-21T04:17:01.982Z,101270.28
2019-02-21T04:19:31.923Z,101263.30
2019-02-21T04:22:02.022Z,101270.98
2019-02-21T04:24:31.928Z,101269.17
2019-02-21T04:27:00.760Z,101263.67
2019-02-21T04:29:33.496Z,101267.27
2019-02-21T04:32:14.220Z,101258.55
2019-02-21T04:34:35.626Z,101257.59
2019-02-21T04:37:11.487Z,101255.95
2019-02-21T04:39:41.402Z,101253.86
2019-02-21T04:42:12.132Z,101248.83
2019-02-21T04:44:41.667Z,101260.59
2019-02-21T04:47:12.069Z,101245.52
2019-02-21T04:49:41.260Z,101249.71
2019-02-21T04:52:10.860Z,101250.61
2019-02-21T04:54:42.099Z,101251.84
2019-02-21T04:57:11.341Z,101252.06
2019-02-21T04:59:40.612Z,101250.75
2019-02-21T05:02:10.810Z,101245.45
2019-02-21T05:04:40.702Z,101244.46
2019-02-21T05:07:11.128Z,101246.27
2019-02-21T05:09:42.001Z,101245.86
2019-02-21T05:12:12.784Z,101241.55
2019-02-21T05:14:42.343Z,101241.85
2019-02-21T05:17:11.546Z,101242.77
2019-02-21T05:19:41.448Z,101241.33
2019-02-21T05:22:11.394Z,101241.25
2019-02-21T05:24:41.292Z,101246.45
2019-02-21T05:27:15.446Z,101252.67
2019-02-21T05:29:45.104Z,101250.64
2019-02-21T05:32:40.675Z,101244.47
2019-02-21T05:35:31.056Z,101251.45
2019-02-21T05:38:17.182Z,101251.15
2019-02-21T05:41:21.001Z,101253.98
2019-02-21T05:44:01.214Z,101256.94
2019-02-21T05:46:45.320Z,101250.17
2019-02-21T05:49:29.652Z,101250.03
2019-02-21T05:52:11.285Z,101252.84
2019-02-21T05:54:56.694Z,101259.09
2019-02-21T05:58:03.333Z,101248.05
2019-02-21T06:00:47.563Z,101266.56
2019-02-21T06:06:56.245Z,101268.62
2019-02-21T06:09:31.370Z,101269.30
2019-02-21T06:12:15.789Z,101265.48
2019-02-21T06:15:03.877Z,101268.02
2019-02-21T06:17:50.896Z,101273.95
2019-02-21T06:20:29.820Z,101275.52
2019-02-21T06:23:04.457Z,101270.72
2019-02-21T06:25:58.223Z,101283.75
2019-02-21T06:28:54.670Z,101285.29
2019-02-21T06:31:52.902Z,101294.27
2019-02-21T06:34:52.469Z,101296.06
2019-02-21T06:37:29.454Z,101300.30
2019-02-21T06:39:58.249Z,101298.60
2019-02-21T06:42:27.024Z,101301.18
2019-02-21T06:44:59.036Z,101302.56
2019-02-21T06:47:27.819Z,101303.05
2019-02-21T06:49:58.665Z,101305.81
2019-02-21T06:52:27.450Z,101313.05
2019-02-21T06:54:56.236Z,101312.80
2019-02-21T06:57:25.127Z,101317.64
2019-02-21T06:59:53.906Z,101312.91
2019-02-21T07:02:23.001Z,101315.99
2019-02-21T07:04:51.798Z,101322.39
2019-02-21T07:07:20.561Z,101321.14
2019-02-21T07:09:49.330Z,101314.03
2019-02-21T07:12:22.520Z,101316.30
2019-02-21T07:14:59.144Z,101324.55
2019-02-21T07:17:28.696Z,101316.84
2019-02-21T07:19:57.473Z,101315.52
2019-02-21T07:22:26.351Z,101312.48
2019-02-21T07:24:59.205Z,101303.24
2019-02-21T07:27:27.985Z,101306.59
2019-02-21T07:29:56.800Z,101305.78
2019-02-21T07:32:25.564Z,101302.50
2019-02-21T07:34:54.717Z,101303.11
2019-02-21T07:37:23.517Z,101304.77
2019-02-21T07:39:52.374Z,101311.03
2019-02-21T07:42:21.707Z,101309.31
2019-02-21T07:44:50.601Z,101316.75
2019-02-21T07:47:19.497Z,101321.63
2019-02-21T07:49:49.299Z,101315.91
2019-02-21T07:52:20.981Z,101320.00
2019-02-21T07:55:01.037Z,101327.83
2019-02-21T07:57:20.303Z,101325.11
2019-02-21T07:59:49.089Z,101328.33
2019-02-21T08:02:20.854Z,101335.33
2019-02-21T08:04:48.736Z,101334.55
2019-02-21T08:07:17.478Z,101328.52
2019-02-21T08:09:46.963Z,101331.75
2019-02-21T08:12:15.761Z,101327.12
2019-02-21T08:14:44.549Z,101330.41
2019-02-21T08:17:16.201Z,101329.95
2019-02-21T08:19:44.310Z,101328.55
2019-02-21T08:22:13.885Z,101331.44
2019-02-21T08:24:42.697Z,101329.65
2019-02-21T08:27:11.821Z,101336.52
2019-02-21T08:29:41.021Z,101339.13
2019-02-21T08:32:11.833Z,101337.88
2019-02-21T08:34:44.428Z,101343.40
2019-02-21T08:37:13.567Z,101345.44
2019-02-21T08:39:42.321Z,101345.87
2019-02-21T08:42:11.179Z,101346.69
2019-02-21T08:44:40.779Z,101342.53
2019-02-21T08:47:11.025Z,101349.66
2019-02-21T08:49:40.629Z,101353.13
2019-02-21T08:52:10.229Z,101363.94
2019-02-21T08:54:39.427Z,101356.72
2019-02-21T08:57:08.955Z,101353.16
2019-02-21T08:59:38.113Z,101351.22
2019-02-21T09:02:07.752Z,101362.81
2019-02-21T09:04:37.672Z,101360.97
2019-02-21T09:07:07.580Z,101365.87
2019-02-21T09:09:37.081Z,101354.92
2019-02-21T09:12:06.408Z,101367.49
2019-02-21T09:14:35.183Z,101358.91
2019-02-21T09:17:04.686Z,101377.23
2019-02-21T09:19:36.681Z,101379.55
2019-02-21T09:22:05.951Z,101377.55
2019-02-21T09:24:40.098Z,101376.06
2019-02-21T09:27:07.704Z,101376.10
2019-02-21T09:29:36.823Z,101389.03
2019-02-21T09:32:07.027Z,101377.44
2019-02-21T09:34:36.248Z,101382.44
2019-02-21T09:37:05.554Z,101374.59
2019-02-21T09:39:34.495Z,101383.97
2019-02-21T09:42:03.827Z,101391.06
2019-02-21T09:44:32.947Z,101393.36
2019-02-21T09:47:02.135Z,101394.35
2019-02-21T09:49:31.650Z,101389.28
2019-02-21T09:52:01.560Z,101383.73
2019-02-21T09:54:31.439Z,101382.09
2019-02-21T09:57:12.464Z,101390.11
2019-02-21T09:59:32.424Z,101385.39
2019-02-21T10:02:02.161Z,101380.67
2019-02-21T10:04:32.555Z,101374.90
2019-02-21T10:07:01.771Z,101375.74
2019-02-21T10:09:31.326Z,101377.08
2019-02-21T10:12:00.547Z,101374.63
2019-02-21T10:14:29.313Z,101375.11
2019-02-21T10:16:58.820Z,101363.05
2019-02-21T10:19:27.695Z,101360.86
2019-02-21T10:21:57.085Z,101360.08
2019-02-21T10:24:25.875Z,101358.56
2019-02-21T10:26:54.735Z,101375.50
2019-02-21T10:29:23.833Z,101356.70
2019-02-21T10:31:52.942Z,101365.39
2019-02-21T10:34:22.345Z,101367.48
2019-02-21T10:36:52.328Z,101364.47
2019-02-21T10:39:21.702Z,101357.61
2019-02-21T10:41:51.177Z,101365.36
2019-02-21T10:44:20.762Z,101354.54
2019-02-21T10:46:49.544Z,101351.64
2019-02-21T10:49:18.403Z,101346.04
2019-02-21T10:51:47.173Z,101357.47
2019-02-21T10:54:15.965Z,101349.00
2019-02-21T10:56:44.730Z,101356.46
2019-02-21T10:59:13.661Z,101343.99
2019-02-21T11:01:42.826Z,101341.02
2019-02-21T11:04:12.059Z,101340.67
2019-02-21T11:06:41.178Z,101346.29
2019-02-21T11:09:18.505Z,101351.34
2019-02-21T11:11:47.803Z,101342.45
2019-02-21T11:14:17.034Z,101341.02
2019-02-21T11:16:47.014Z,101345.36
2019-02-21T11:19:18.926Z,101348.80
2019-02-21T11:21:47.775Z,101332.81
2019-02-21T11:24:30.166Z,101333.83
2019-02-21T11:26:59.276Z,101343.67
2019-02-21T11:29:28.069Z,101340.91
2019-02-21T11:31:57.479Z,101345.00
2019-02-21T11:34:26.293Z,101342.06
2019-02-21T11:36:55.100Z,101340.58
2019-02-21T11:39:23.872Z,101336.48
2019-02-21T11:41:52.749Z,101324.92
2019-02-21T11:44:21.846Z,101318.16
2019-02-21T11:46:50.656Z,101320.44
2019-02-21T11:49:19.773Z,101325.66
2019-02-21T11:51:48.562Z,101329.23
2019-02-21T11:54:26.565Z,101329.94
2019-02-21T11:56:47.888Z,101333.80
2019-02-21T11:59:16.663Z,101332.05
2019-02-21T12:01:45.532Z,101326.45
2019-02-21T12:04:14.451Z,101312.61
2019-02-21T12:06:43.283Z,101312.95
2019-02-21T12:09:13.344Z,101308.09
2019-02-21T12:11:42.169Z,101303.39
2019-02-21T12:14:11.062Z,101306.02
2019-02-21T12:16:39.866Z,101298.70
2019-02-21T12:19:08.631Z,101295.09
2019-02-21T12:21:37.512Z,101295.61
2019-02-21T12:24:06.381Z,101311.75
2019-02-21T12:26:35.180Z,101300.59
2019-02-21T12:29:03.973Z,101302.61
2019-02-21T12:31:32.773Z,101304.22
2019-02-21T12:34:01.695Z,101299.58
2019-02-21T12:36:30.467Z,101302.89
2019-02-21T12:38:59.273Z,101297.58
2019-02-21T12:41:28.100Z,101302.92
2019-02-21T12:43:56.990Z,101307.08
2019-02-21T12:46:25.776Z,101301.25
2019-02-21T12:48:57.844Z,101310.70
2019-02-21T12:51:27.851Z,101302.09
2019-02-21T12:53:56.824Z,101307.83
2019-02-21T12:56:25.661Z,101303.92
2019-02-21T12:58:54.437Z,101303.24
2019-02-21T13:01:23.218Z,101317.96
2019-02-21T13:03:52.030Z,101315.97
2019-02-21T13:06:27.062Z,101327.67
2019-02-21T13:09:01.536Z,101311.70
2019-02-21T13:11:36.526Z,101318.48
2019-02-21T13:14:05.994Z,101319.08
2019-02-21T13:16:35.086Z,101326.80
2019-02-21T13:19:03.967Z,101335.08
2019-02-21T13:21:33.215Z,101317.63
2019-02-21T13:24:02.008Z,101312.59
2019-02-21T13:26:31.220Z,101320.02
2019-02-21T13:29:00.056Z,101322.81
2019-02-21T13:31:28.925Z,101315.23
2019-02-21T13:33:57.695Z,101329.35
2019-02-21T13:36:26.491Z,101323.62
2019-02-21T13:38:55.311Z,101319.79
2019-02-21T13:41:24.086Z,101315.92
2019-02-21T13:43:52.893Z,101312.81
2019-02-21T13:46:21.665Z,101309.91
2019-02-21T13:48:50.458Z,101313.02
2019-02-21T13:51:19.253Z,101302.77
2019-02-21T13:53:48.403Z,101299.14
2019-02-21T13:56:17.207Z,101309.98
2019-02-21T13:58:45.980Z,101307.67
2019-02-21T14:01:14.882Z,101305.66
2019-02-21T14:03:43.656Z,101317.20
2019-02-21T14:06:12.471Z,101318.60
2019-02-21T14:08:41.254Z,101321.05
2019-02-21T14:11:10.169Z,101310.27
2019-02-21T14:13:38.963Z,101314.07
2019-02-21T14:16:12.097Z,101315.48
2019-02-21T14:18:41.039Z,101324.02
2019-02-21T14:21:09.860Z,101331.77
2019-02-21T14:23:38.679Z,101322.44
2019-02-21T14:26:07.579Z,101323.53
2019-02-21T14:28:37.449Z,101318.02
2019-02-21T14:31:07.400Z,101332.13
2019-02-21T14:33:36.500Z,101347.63
2019-02-21T14:36:15.189Z,101345.91
2019-02-21T14:38:37.819Z,101334.41
2019-02-21T14:41:06.478Z,101336.14
2019-02-21T14:43:35.305Z,101328.80
2019-02-21T14:46:04.235Z,101325.27
2019-02-21T14:48:33.003Z,101327.15
2019-02-21T14:51:01.818Z,101328.87
2019-02-21T14:53:30.579Z,101335.03
2019-02-21T14:55:59.383Z,101328.53
2019-02-21T14:58:28.187Z,101326.15
2019-02-21T15:00:57.036Z,101334.23
2019-02-21T15:03:25.853Z,101331.80
2019-02-21T15:05:54.628Z,101339.48
2019-02-21T15:08:23.450Z,101346.80
2019-02-21T15:10:52.791Z,101344.45
2019-02-21T15:13:21.765Z,101334.64
2019-02-21T15:15:50.649Z,101332.45
2019-02-21T15:18:19.488Z,101339.52
2019-02-21T15:20:48.290Z,101345.90
2019-02-21T15:23:17.410Z,101350.70
2019-02-21T15:25:46.360Z,101353.95
2019-02-21T15:28:15.160Z,101346.23
2019-02-21T15:30:43.986Z,101351.73
2019-02-21T15:33:12.764Z,101356.03
2019-02-21T15:35:41.857Z,101356.05
2019-02-21T15:38:19.642Z,101359.55
2019-02-21T15:40:43.364Z,101355.94
2019-02-21T15:43:11.746Z,101361.55
2019-02-21T15:45:40.602Z,101360.66
2019-02-21T15:48:09.505Z,101355.73
2019-02-21T15:50:38.275Z,101365.34
2019-02-21T15:53:07.050Z,101373.57
2019-02-21T15:55:35.861Z,101360.65
2019-02-21T15:58:05.028Z,101368.95
2019-02-21T16:00:33.778Z,101368.04
2019-02-21T16:03:02.661Z,101367.79
2019-02-21T16:05:32.129Z,101372.08
2019-02-21T16:08:00.907Z,101382.91
2019-02-21T16:10:29.787Z,101379.35
2019-02-21T16:12:59.162Z,101363.14
2019-02-21T16:15:28.399Z,101364.16
2019-02-21T16:17:57.205Z,101368.44
2019-02-21T16:20:26.437Z,101353.62
2019-02-21T16:22:55.209Z,101361.45
2019-02-21T16:25:24.120Z,101357.84
2019-02-21T16:27:55.470Z,101344.56
2019-02-21T16:30:24.475Z,101339.13
2019-02-21T16:32:53.720Z,101338.86
2019-02-21T16:35:22.510Z,101339.05
2019-02-21T16:37:51.378Z,101342.64
2019-02-21T16:40:20.286Z,101336.92
2019-02-21T16:42:49.153Z,101343.47
2019-02-21T16:45:18.461Z,101343.98
2019-02-21T16:47:48.048Z,101340.63
2019-02-21T16:50:28.801Z,101340.95
2019-02-21T16:52:47.902Z,101346.30
2019-02-21T16:55:18.386Z,101349.48
2019-02-21T16:57:48.059Z,101350.81
2019-02-21T17:00:18.840Z,101357.80
2019-02-21T17:02:48.999Z,101358.86
2019-02-21T17:05:18.253Z,101357.23
2019-02-21T17:07:48.147Z,101351.18
2019-02-21T17:10:18.122Z,101357.42
2019-02-21T17:12:47.840Z,101367.77
2019-02-21T17:15:17.896Z,101370.49
2019-02-21T17:17:47.703Z,101365.08
2019-02-21T17:20:17.497Z,101367.98
2019-02-21T17:22:47.469Z,101374.03
2019-02-21T17:25:17.039Z,101378.81
2019-02-21T17:27:47.127Z,101384.04
2019-02-21T17:30:17.551Z,101393.47
2019-02-21T17:32:47.318Z,101390.70
2019-02-21T17:35:16.377Z,101400.76
2019-02-21T17:37:45.726Z,101392.36
2019-02-21T17:40:18.258Z,101405.28
2019-02-21T17:42:48.254Z,101414.94
2019-02-21T17:45:18.208Z,101424.45
2019-02-21T17:47:47.159Z,101422.83
2019-02-21T17:50:17.270Z,101439.92
2019-02-21T17:52:46.591Z,101434.27
2019-02-21T17:55:16.092Z,101431.92
2019-02-21T17:57:45.715Z,101441.45
2019-02-21T18:00:19.583Z,101448.31
2019-02-21T18:02:49.378Z,101445.45
2019-02-21T18:05:19.549Z,101441.73
2019-02-21T18:07:49.670Z,101443.36
2019-02-21T18:10:19.309Z,101438.79
2019-02-21T18:12:48.790Z,101434.39
2019-02-21T18:15:18.458Z,101442.38
2019-02-21T18:17:47.295Z,101449.34
2019-02-21T18:20:16.870Z,101440.23
2019-02-21T18:22:47.185Z,101440.23
2019-02-21T18:25:23.306Z,101443.59
2019-02-21T18:27:52.828Z,101453.84
2019-02-21T18:30:23.228Z,101453.92
2019-02-21T18:32:52.556Z,101448.59
2019-02-21T18:35:22.570Z,101452.59
2019-02-21T18:37:52.797Z,101451.06
2019-02-21T18:40:22.301Z,101459.45
2019-02-21T18:42:51.912Z,101447.36
2019-02-21T18:45:21.916Z,101453.94
2019-02-21T18:47:51.830Z,101449.41
2019-02-21T18:50:21.536Z,101453.70
2019-02-21T18:52:50.458Z,101458.91
2019-02-21T18:55:19.874Z,101464.94
2019-02-21T18:57:48.719Z,101468.05
2019-02-21T19:00:19.498Z,101466.08
2019-02-21T19:02:48.653Z,101489.53
2019-02-21T19:05:17.443Z,101488.94
2019-02-21T19:07:46.582Z,101473.34
2019-02-21T19:10:16.036Z,101482.94
2019-02-21T19:12:44.876Z,101480.55
2019-02-21T19:15:15.841Z,101481.67
2019-02-21T19:17:45.117Z,101482.91
2019-02-21T19:20:14.595Z,101480.80
2019-02-21T19:22:43.972Z,101494.02
2019-02-21T19:25:13.967Z,101492.14
2019-02-21T19:27:43.462Z,101493.95
2019-02-21T19:30:19.014Z,101501.37
2019-02-21T19:32:48.234Z,101494.14
2019-02-21T19:35:17.524Z,101492.43
2019-02-21T19:37:46.397Z,101501.37
2019-02-21T19:40:15.859Z,101496.60
2019-02-21T19:42:45.103Z,101505.61
2019-02-21T19:45:14.375Z,101506.67
2019-02-21T19:47:43.244Z,101509.72
2019-02-21T19:50:12.641Z,101509.58
2019-02-21T19:52:41.690Z,101517.73
2019-02-21T19:55:10.862Z,101527.23
2019-02-21T19:57:39.633Z,101514.56
2019-02-21T20:00:12.190Z,101514.70
2019-02-21T20:02:41.033Z,101518.17
2019-02-21T20:05:10.849Z,101523.19
2019-02-21T20:07:40.150Z,101527.17
2019-02-21T20:10:09.552Z,101527.84
2019-02-21T20:12:39.441Z,101531.83
2019-02-21T20:15:08.628Z,101539.47
2019-02-21T20:17:37.850Z,101536.88
2019-02-21T20:20:07.785Z,101542.19
2019-02-21T20:22:36.551Z,101538.04
2019-02-21T20:25:05.932Z,101545.11
2019-02-21T20:27:35.623Z,101546.24
2019-02-21T20:30:04.869Z,101551.55
2019-02-21T20:32:33.630Z,101556.94
2019-02-21T20:35:02.906Z,101551.77
2019-02-21T20:37:32.153Z,101557.45
2019-02-21T20:40:01.854Z,101552.77
2019-02-21T20:42:31.831Z,101561.58
2019-02-21T20:45:00.611Z,101556.42
2019-02-21T20:47:29.942Z,101565.04
2019-02-21T20:49:58.749Z,101561.38
2019-02-21T20:52:28.040Z,101567.38
2019-02-21T20:54:58.122Z,101568.38
2019-02-21T20:57:28.172Z,101573.69
2019-02-21T20:59:58.190Z,101571.55
2019-02-21T21:02:28.241Z,101565.56
2019-02-21T21:04:58.266Z,101567.75
2019-02-21T21:07:27.881Z,101570.55
2019-02-21T21:09:57.378Z,101581.71
2019-02-21T21:12:26.899Z,101588.19
2019-02-21T21:14:56.012Z,101595.13
2019-02-21T21:17:25.185Z,101601.77
2019-02-21T21:19:54.061Z,101600.77
2019-02-21T21:22:23.275Z,101597.16
2019-02-21T21:24:52.049Z,101605.18
2019-02-21T21:27:21.260Z,101595.70
2019-02-21T21:29:50.661Z,101592.04
2019-02-21T21:32:20.208Z,101601.33
2019-02-21T21:34:49.702Z,101597.64
2019-02-21T21:37:18.482Z,101594.83
2019-02-21T21:39:48.396Z,101592.98
2019-02-21T21:42:18.399Z,101598.63
2019-02-21T21:44:48.209Z,101601.01
2019-02-21T21:47:17.763Z,101595.18
2019-02-21T21:49:47.855Z,101606.13
2019-02-21T21:52:17.417Z,101607.97
2019-02-21T21:54:46.602Z,101610.25
2019-02-21T21:57:15.525Z,101615.75
2019-02-21T21:59:44.295Z,101623.53
2019-02-21T22:02:13.103Z,101619.02
2019-02-21T22:04:42.243Z,101614.05
2019-02-21T22:07:11.096Z,101613.52
2019-02-21T22:09:39.983Z,101613.36
2019-02-21T22:12:09.104Z,101622.66
2019-02-21T22:14:37.875Z,101622.47
2019-02-21T22:17:06.675Z,101637.22
2019-02-21T22:19:35.449Z,101629.11
2019-02-21T22:22:04.366Z,101620.77
2019-02-21T22:24:33.249Z,101619.30
2019-02-21T22:27:02.045Z,101622.77
2019-02-21T22:29:30.814Z,101622.47
2019-02-21T22:31:59.632Z,101620.11
2019-02-21T22:34:28.429Z,101616.02
2019-02-21T22:36:57.273Z,101621.34
2019-02-21T22:39:26.081Z,101628.45
2019-02-21T22:41:54.914Z,101632.63
2019-02-21T22:44:23.719Z,101642.73
2019-02-21T22:46:52.590Z,101643.63
2019-02-21T22:49:21.355Z,101648.76
2019-02-21T22:51:50.450Z,101653.20
2019-02-21T22:54:19.256Z,101653.87
2019-02-21T22:56:48.403Z,101647.76
2019-02-21T22:59:17.257Z,101655.59
2019-02-21T23:01:47.542Z,101649.48
2019-02-21T23:04:50.973Z,101650.52
2019-02-21T23:07:24.833Z,101660.11
2019-02-21T23:09:53.783Z,101662.46
2019-02-21T23:12:22.607Z,101662.27
2019-02-21T23:14:51.454Z,101668.40
2019-02-21T23:17:20.301Z,101672.89
2019-02-21T23:19:49.279Z,101677.07
2019-02-21T23:22:18.514Z,101676.03
2019-02-21T23:24:47.281Z,101682.00
2019-02-21T23:27:16.154Z,101679.67
2019-02-21T23:29:45.296Z,101684.98
2019-02-21T23:32:14.140Z,101677.50
2019-02-21T23:34:44.750Z,101679.39
2019-02-21T23:37:13.598Z,101686.17
2019-02-21T23:39:42.609Z,101687.87
2019-02-21T23:42:11.579Z,101693.00
2019-02-21T23:44:40.428Z,101692.67
2019-02-21T23:47:09.196Z,101690.83
2019-02-21T23:49:38.107Z,101692.86
2019-02-21T23:52:06.990Z,101691.20
2019-02-21T23:54:35.846Z,101695.75
2019-02-21T23:57:04.833Z,101697.08
2019-02-21T23:59:33.721Z,101696.42
